Startpagina
METAR-TAF:

METAR-TAF

Vliegvelden :

Cartagena, Colombia

breedte: 10-27N, lengte: 075-31W, hoogte: 1 m

Actueel weer

Dit bericht is 32 minuten geleden gemaakt, om 01:00 UTC
Wind 9 kt uit het noordnoordoosten, variërend tussen het noorden en het oostnoordoosten
Temperatuur 26°C
Vochtigheid 79%
Druk 1011 hPa
Zicht 10 km of meer
geen wolken onder 1500 m en geen cumulonimbus

METAR: SKCG 250100Z 02009KT 360V060 CAVOK 26/22 A2984

Tijdstip: 20:32 (01:32 UTC)

Verwachting

Dit bericht is 3 uur en het 2 minuten geleden gemaakt, om 22:30 UTC
Verwachting geldig van 25 om 00 UTC tot 25 om 24 UTC
Wind 10 kt uit het noordnoordoosten
Zicht 10 km of meer
Weinig wolken op 1700 ft
Wijzigt naar
van 25 om 17 UTC tot 25 om 19 UTC
Wind 18 kt uit het noorden

TAF: SKCG 242230Z 2500/2524 02010KT 9999 FEW017 BECMG 2517/2519 35018KT TX32/2518Z TN24/2511Z

Waarnemingen en weersverwachtingen van meer dan 4000 vliegvelden (METAR en TAF).

De beschikbare stations zijn de gele en rode punten op de kaart.

Ga met uw muis naar het station om de naam te zien.

Klik dan om waarnemingen en weersverwachtingen te zien.

kaart wijzigen: klik op de groene knoppen met een zwart kruis om in te zoomen, op de groene knop met een streepje om uit te zoomen of op de groene pijlen voor aangrenzende kaarten.


METAR-TAF: